Time;durP1;ratioP1;P1;durP2;ratioP2;P2;SDS_P1;SDS_P2;PMS_P1;PMS_P2;Temp;Humidity;BMP_temperature;BMP_pressure;BME280_temperature;BME280_humidity;BME280_pressure;Samples;Min_cycle;Max_cycle;Signal;HPM_P1;HPM_P2
2023/10/08 00:00:49;;;;;;;;;;;16.60;99.90;;;;;;5025914;28;19929;-86
2023/10/08 00:03:17;;;;;;;;;;;16.50;99.90;;;;;;5027826;28;19940;-87
2023/10/08 00:05:42;;;;;;;;;;;16.20;99.90;;;;;;5038908;28;19926;-86
2023/10/08 00:08:13;;;;;;;;;;;16.00;99.90;;;;;;5025154;28;20012;-88
2023/10/08 00:10:42;;;;;;;;;;;15.80;99.90;;;;;;5025283;28;19925;-84
2023/10/08 00:13:09;;;;;;;;;;;15.60;99.90;;;;;;5021885;28;19926;-86
2023/10/08 00:15:41;;;;;;;;;;;15.30;99.90;;;;;;5042760;28;19987;-86
2023/10/08 00:18:11;;;;;;;;;;;15.20;99.90;;;;;;5026825;28;20456;-87
2023/10/08 00:20:46;;;;;;;;;;;15.00;99.90;;;;;;5036378;28;19987;-90
2023/10/08 00:23:12;;;;;;;;;;;14.90;99.90;;;;;;5036812;28;19925;-88
2023/10/08 00:25:41;;;;;;;;;;;14.80;99.90;;;;;;5030043;28;19925;-89
2023/10/08 00:28:10;;;;;;;;;;;14.60;99.90;;;;;;5030814;28;20931;-85
2023/10/08 00:30:38;;;;;;;;;;;14.50;99.90;;;;;;5023429;28;19925;-87
2023/10/08 00:33:04;;;;;;;;;;;14.40;99.90;;;;;;5030958;28;19925;-90
2023/10/08 00:35:30;;;;;;;;;;;14.20;99.90;;;;;;5031125;28;20048;-89
2023/10/08 00:38:00;;;;;;;;;;;14.10;99.90;;;;;;5029428;28;19992;-87
2023/10/08 00:40:36;;;;;;;;;;;14.00;99.90;;;;;;5023697;28;19925;-85
2023/10/08 00:43:04;;;;;;;;;;;13.90;99.90;;;;;;5025076;28;20077;-89
2023/10/08 00:45:30;;;;;;;;;;;13.90;99.90;;;;;;5027260;28;19925;-89
2023/10/08 00:47:57;;;;;;;;;;;13.90;99.90;;;;;;5027408;28;19933;-88
2023/10/08 00:50:31;;;;;;;;;;;13.80;99.90;;;;;;5024658;28;19925;-87
2023/10/08 00:53:00;;;;;;;;;;;13.80;99.90;;;;;;5028144;28;20400;-85
2023/10/08 00:55:29;;;;;;;;;;;13.80;99.90;;;;;;5023993;28;20430;-86
2023/10/08 00:57:58;;;;;;;;;;;13.80;99.90;;;;;;5023842;28;19925;-85
2023/10/08 01:00:32;;;;;;;;;;;13.70;99.90;;;;;;5032829;28;19947;-85
2023/10/08 01:03:00;;;;;;;;;;;13.70;99.90;;;;;;5022731;28;19936;-86
2023/10/08 01:05:42;;;;;;;;;;;13.70;99.90;;;;;;5021528;28;19930;-86
2023/10/08 01:08:08;;;;;;;;;;;13.70;99.90;;;;;;5026842;28;19930;-87
2023/10/08 01:10:35;;;;;;;;;;;13.70;99.90;;;;;;5026631;28;19925;-86
2023/10/08 01:15:30;;;;;;;;;;;13.70;99.90;;;;;;5028479;28;19972;-86
2023/10/08 01:18:00;;;;;;;;;;;13.70;99.90;;;;;;5041970;28;20039;-87
2023/10/08 01:20:38;;;;;;;;;;;13.70;99.90;;;;;;5030497;28;19925;-86
2023/10/08 01:23:04;;;;;;;;;;;13.70;99.90;;;;;;5030132;28;20427;-86
2023/10/08 01:25:30;;;;;;;;;;;13.80;99.90;;;;;;5022360;28;19964;-85
2023/10/08 01:27:58;;;;;;;;;;;13.70;99.90;;;;;;5028824;28;19934;-87
2023/10/08 01:30:24;;;;;;;;;;;13.70;99.90;;;;;;5026841;28;20384;-86
2023/10/08 01:32:49;;;;;;;;;;;13.60;99.90;;;;;;5019493;28;20001;-87
2023/10/08 01:35:24;;;;;;;;;;;13.60;99.90;;;;;;5022405;28;19926;-88
2023/10/08 01:37:50;;;;;;;;;;;13.60;99.90;;;;;;5026092;28;20007;-88
2023/10/08 01:40:16;;;;;;;;;;;13.50;99.90;;;;;;5027981;28;19933;-87
2023/10/08 01:42:42;;;;;;;;;;;13.50;99.90;;;;;;5004832;28;19933;-86
2023/10/08 01:45:13;;;;;;;;;;;13.50;99.90;;;;;;5022732;28;19929;-85
2023/10/08 01:47:38;;;;;;;;;;;13.50;99.90;;;;;;5022790;28;19933;-86
2023/10/08 01:50:21;;;;;;;;;;;13.50;99.90;;;;;;5024451;28;20369;-87
2023/10/08 01:52:46;;;;;;;;;;;13.60;99.90;;;;;;5024642;28;20913;-87
2023/10/08 01:55:17;;;;;;;;;;;13.60;99.90;;;;;;5022700;28;19933;-87
2023/10/08 01:57:43;;;;;;;;;;;13.60;99.90;;;;;;5025843;28;19926;-87
2023/10/08 02:00:09;;;;;;;;;;;13.60;99.90;;;;;;5024678;28;19987;-87
2023/10/08 02:02:35;;;;;;;;;;;13.60;99.90;;;;;;5045367;28;20403;-87
2023/10/08 02:05:01;;;;;;;;;;;13.50;99.90;;;;;;5027932;28;19933;-88
2023/10/08 02:07:26;;;;;;;;;;;13.60;99.90;;;;;;5023626;28;19925;-89
2023/10/08 02:09:52;;;;;;;;;;;13.60;99.90;;;;;;5028028;28;20497;-89
2023/10/08 02:12:18;;;;;;;;;;;13.60;99.90;;;;;;5020874;28;19943;-89
2023/10/08 02:14:44;;;;;;;;;;;13.60;99.90;;;;;;5020779;28;20020;-87
2023/10/08 02:17:10;;;;;;;;;;;13.60;99.90;;;;;;5023628;28;19961;-88
2023/10/08 02:19:37;;;;;;;;;;;13.60;99.90;;;;;;5030111;28;20396;-88
2023/10/08 02:22:05;;;;;;;;;;;13.60;99.90;;;;;;5018937;28;20020;-88
2023/10/08 02:24:31;;;;;;;;;;;13.60;99.90;;;;;;5023489;28;19976;-88
2023/10/08 02:26:57;;;;;;;;;;;13.60;99.90;;;;;;5024000;28;19932;-88
2023/10/08 02:29:25;;;;;;;;;;;13.70;99.90;;;;;;5027676;28;19925;-89
2023/10/08 02:31:50;;;;;;;;;;;13.70;99.90;;;;;;5024594;28;19933;-88
2023/10/08 02:34:16;;;;;;;;;;;13.70;99.90;;;;;;5022503;28;20336;-89
2023/10/08 02:36:42;;;;;;;;;;;13.70;99.90;;;;;;5020012;28;19997;-89
2023/10/08 02:39:14;;;;;;;;;;;13.70;99.90;;;;;;5021433;28;19945;-89
2023/10/08 02:41:41;;;;;;;;;;;13.70;99.90;;;;;;5030782;28;19933;-88
2023/10/08 02:44:12;;;;;;;;;;;13.70;99.90;;;;;;5027822;28;20479;-88
2023/10/08 02:46:41;;;;;;;;;;;13.70;99.90;;;;;;5020885;28;20449;-88
2023/10/08 02:49:10;;;;;;;;;;;13.70;99.90;;;;;;5029547;28;19925;-89
2023/10/08 02:51:36;;;;;;;;;;;13.70;99.90;;;;;;5023494;28;19960;-88
2023/10/08 02:54:05;;;;;;;;;;;13.70;99.90;;;;;;5035475;28;19951;-88
2023/10/08 02:56:32;;;;;;;;;;;13.70;99.90;;;;;;5029258;28;19934;-88
2023/10/08 02:58:57;;;;;;;;;;;13.70;99.90;;;;;;5027732;28;19944;-88
2023/10/08 03:01:23;;;;;;;;;;;13.70;99.90;;;;;;5032244;28;19925;-87
2023/10/08 03:03:49;;;;;;;;;;;13.70;99.90;;;;;;5033710;28;20303;-88
2023/10/08 03:06:14;;;;;;;;;;;13.70;99.90;;;;;;5040952;28;19956;-88
2023/10/08 03:08:43;;;;;;;;;;;13.70;99.90;;;;;;5027508;28;20010;-89
2023/10/08 03:11:16;;;;;;;;;;;13.70;99.90;;;;;;5030052;28;19997;-88
2023/10/08 03:13:46;;;;;;;;;;;13.70;99.90;;;;;;5033063;28;19925;-88
2023/10/08 03:16:14;;;;;;;;;;;13.70;99.90;;;;;;5030521;28;19929;-88
2023/10/08 03:18:45;;;;;;;;;;;13.60;99.90;;;;;;5027579;28;19936;-87
2023/10/08 03:21:20;;;;;;;;;;;13.60;99.90;;;;;;5026221;28;19933;-88
2023/10/08 03:23:47;;;;;;;;;;;13.60;99.90;;;;;;5031631;28;19980;-88
2023/10/08 03:26:32;;;;;;;;;;;13.50;99.90;;;;;;5027662;28;19929;-87
2023/10/08 03:29:06;;;;;;;;;;;13.50;99.90;;;;;;5024386;28;19934;-89
2023/10/08 03:31:54;;;;;;;;;;;13.40;99.90;;;;;;5030702;28;20412;-88
2023/10/08 03:34:20;;;;;;;;;;;13.40;99.90;;;;;;5039381;28;19952;-87
2023/10/08 03:36:47;;;;;;;;;;;13.40;99.90;;;;;;5023625;28;19933;-88
2023/10/08 03:39:13;;;;;;;;;;;13.40;99.90;;;;;;5025451;28;19979;-88
2023/10/08 03:41:41;;;;;;;;;;;13.40;99.90;;;;;;5027749;28;19933;-88
2023/10/08 03:44:12;;;;;;;;;;;13.40;99.90;;;;;;5027907;28;19936;-88
2023/10/08 03:46:42;;;;;;;;;;;13.30;99.90;;;;;;5026272;28;20405;-88
2023/10/08 03:49:45;;;;;;;;;;;13.40;99.90;;;;;;5022588;28;19925;-88
2023/10/08 03:52:00;;;;;;;;;;;13.30;99.90;;;;;;5011762;28;19930;-89
2023/10/08 03:54:35;;;;;;;;;;;13.30;99.90;;;;;;5026479;28;19944;-90
2023/10/08 03:57:06;;;;;;;;;;;13.30;99.90;;;;;;5027376;28;20016;-90
2023/10/08 03:59:33;;;;;;;;;;;13.30;99.90;;;;;;5026628;28;19933;-90
2023/10/08 04:02:13;;;;;;;;;;;13.40;99.90;;;;;;5024099;28;19929;-90
2023/10/08 04:04:51;;;;;;;;;;;13.40;99.90;;;;;;5016804;28;20514;-91
2023/10/08 04:10:05;;;;;;;;;;;13.40;99.90;;;;;;5047582;28;20029;-89
2023/10/08 04:12:34;;;;;;;;;;;13.40;99.90;;;;;;5031039;28;19929;-89
2023/10/08 04:15:07;;;;;;;;;;;13.40;99.90;;;;;;5032798;28;19929;-90
2023/10/08 04:17:43;;;;;;;;;;;13.40;99.90;;;;;;5022462;28;19925;-87
2023/10/08 04:20:32;;;;;;;;;;;13.40;99.90;;;;;;5029662;28;19925;-89
2023/10/08 04:23:01;;;;;;;;;;;13.40;99.90;;;;;;5021333;28;19925;-90
2023/10/08 04:25:27;;;;;;;;;;;13.30;99.90;;;;;;5024745;28;19925;-90
2023/10/08 04:27:54;;;;;;;;;;;13.30;99.90;;;;;;5026096;28;19925;-90
2023/10/08 04:30:22;;;;;;;;;;;13.30;99.90;;;;;;5025478;28;19944;-91
2023/10/08 04:32:52;;;;;;;;;;;13.30;99.90;;;;;;5030723;28;20538;-91
2023/10/08 04:35:19;;;;;;;;;;;13.30;99.90;;;;;;5030645;28;19925;-91
2023/10/08 04:37:51;;;;;;;;;;;13.30;99.90;;;;;;5027378;28;19925;-90
2023/10/08 04:40:16;;;;;;;;;;;13.30;99.90;;;;;;5024257;28;19937;-91
2023/10/08 04:42:45;;;;;;;;;;;13.30;99.90;;;;;;5023387;28;19929;-91
2023/10/08 04:45:14;;;;;;;;;;;13.30;99.90;;;;;;5022962;28;19937;-90
2023/10/08 04:47:42;;;;;;;;;;;13.30;99.90;;;;;;5025496;28;19951;-91
2023/10/08 04:50:14;;;;;;;;;;;13.30;99.90;;;;;;5031524;28;20371;-90
2023/10/08 04:52:46;;;;;;;;;;;13.30;99.90;;;;;;5030363;28;19940;-90
2023/10/08 04:55:20;;;;;;;;;;;13.30;99.90;;;;;;5021555;28;19926;-91
2023/10/08 04:57:46;;;;;;;;;;;13.30;99.90;;;;;;5033198;28;19969;-89
2023/10/08 05:00:15;;;;;;;;;;;13.30;99.90;;;;;;5021793;28;19936;-90
2023/10/08 05:02:50;;;;;;;;;;;13.20;99.90;;;;;;5036732;28;19929;-90
2023/10/08 05:11:00;;;;;;;;;;;13.20;99.90;;;;;;5039827;28;19982;-90
2023/10/08 05:28:30;;;;;;;;;;;13.10;99.90;;;;;;5039570;28;19944;-89
2023/10/08 05:31:31;;;;;;;;;;;13.10;99.90;;;;;;5028486;28;20241;-90
2023/10/08 05:36:35;;;;;;;;;;;13.10;99.90;;;;;;5034628;28;20020;-91
2023/10/08 05:39:16;;;;;;;;;;;13.10;99.90;;;;;;5032056;28;19930;-91
2023/10/08 05:41:51;;;;;;;;;;;13.10;99.90;;;;;;5033866;28;19940;-90
2023/10/08 05:47:06;;;;;;;;;;;13.10;99.90;;;;;;5031914;28;20339;-91
2023/10/08 05:59:38;;;;;;;;;;;13.00;99.90;;;;;;5022720;28;19983;-92
2023/10/08 06:02:39;;;;;;;;;;;13.10;99.90;;;;;;5046056;28;19924;-91
2023/10/08 06:05:09;;;;;;;;;;;13.10;99.90;;;;;;5023382;28;19934;-92
2023/10/08 06:08:11;;;;;;;;;;;13.10;99.90;;;;;;5037512;28;19955;-92
2023/10/08 06:13:06;;;;;;;;;;;13.10;99.90;;;;;;5029615;28;19929;-91
2023/10/08 06:18:11;;;;;;;;;;;13.10;99.90;;;;;;5026581;28;20527;-91
2023/10/08 06:20:39;;;;;;;;;;;13.20;99.90;;;;;;5028459;28;19926;-91
2023/10/08 06:23:07;;;;;;;;;;;13.10;99.90;;;;;;5031537;28;20431;-91
2023/10/08 06:25:33;;;;;;;;;;;13.10;99.90;;;;;;5026638;28;19975;-92
2023/10/08 06:27:59;;;;;;;;;;;13.10;99.90;;;;;;5026745;28;19933;-92
2023/10/08 06:30:29;;;;;;;;;;;13.10;99.90;;;;;;5025905;28;19998;-92
2023/10/08 06:32:56;;;;;;;;;;;13.10;99.90;;;;;;5028573;28;19978;-92
2023/10/08 06:35:25;;;;;;;;;;;13.10;99.90;;;;;;5028163;28;19925;-92
2023/10/08 06:37:54;;;;;;;;;;;13.00;99.90;;;;;;5026995;28;20412;-92
2023/10/08 06:43:11;;;;;;;;;;;13.10;99.90;;;;;;5026194;28;19929;-93
2023/10/08 06:45:41;;;;;;;;;;;13.10;99.90;;;;;;5028864;28;19926;-93
2023/10/08 06:48:06;;;;;;;;;;;13.10;99.90;;;;;;5030720;28;19931;-93
2023/10/08 06:50:38;;;;;;;;;;;13.10;99.90;;;;;;5031951;28;19973;-92
2023/10/08 06:53:07;;;;;;;;;;;13.20;99.90;;;;;;5032777;28;19935;-92
2023/10/08 06:55:36;;;;;;;;;;;13.20;99.90;;;;;;5022927;28;19932;-92
2023/10/08 06:58:05;;;;;;;;;;;13.20;99.90;;;;;;5038527;28;19968;-93
2023/10/08 07:00:46;;;;;;;;;;;13.20;99.90;;;;;;5026929;28;19930;-91
2023/10/08 07:03:17;;;;;;;;;;;13.20;99.90;;;;;;5030581;28;19929;-92
2023/10/08 07:05:44;;;;;;;;;;;13.20;99.90;;;;;;5027467;28;19929;-92
2023/10/08 07:08:13;;;;;;;;;;;13.10;99.90;;;;;;5026315;28;19940;-93
2023/10/08 07:10:40;;;;;;;;;;;13.10;99.90;;;;;;5029492;28;20293;-92
2023/10/08 07:13:07;;;;;;;;;;;13.10;99.90;;;;;;5033196;28;19930;-92
2023/10/08 07:15:36;;;;;;;;;;;13.10;99.90;;;;;;5032459;28;19925;-92
2023/10/08 07:18:09;;;;;;;;;;;13.10;99.90;;;;;;5032574;28;19933;-92
2023/10/08 07:20:39;;;;;;;;;;;13.20;99.90;;;;;;5015310;28;19941;-92
2023/10/08 07:23:09;;;;;;;;;;;13.20;99.90;;;;;;5030562;28;20377;-92
2023/10/08 07:25:38;;;;;;;;;;;13.30;99.90;;;;;;5039038;28;19928;-93
2023/10/08 07:28:12;;;;;;;;;;;13.30;99.90;;;;;;5045409;28;19926;-92
2023/10/08 07:30:43;;;;;;;;;;;13.40;99.90;;;;;;5032788;28;19965;-93
2023/10/08 07:33:17;;;;;;;;;;;13.50;99.90;;;;;;5015660;28;19925;-92
2023/10/08 07:36:11;;;;;;;;;;;13.50;99.90;;;;;;5023902;28;20029;-93
2023/10/08 07:38:43;;;;;;;;;;;13.60;99.90;;;;;;5030210;28;19944;-93
2023/10/08 07:41:12;;;;;;;;;;;13.60;99.90;;;;;;5023536;28;19987;-93
2023/10/08 07:43:44;;;;;;;;;;;13.70;99.90;;;;;;5029375;28;20404;-92
2023/10/08 07:46:10;;;;;;;;;;;13.70;99.90;;;;;;5029893;28;20950;-92
2023/10/08 07:48:36;;;;;;;;;;;13.70;99.90;;;;;;5025065;28;19936;-92
2023/10/08 07:51:02;;;;;;;;;;;13.80;99.90;;;;;;5024927;28;20007;-92
2023/10/08 07:53:41;;;;;;;;;;;13.80;99.90;;;;;;5026709;28;19930;-92
2023/10/08 07:56:08;;;;;;;;;;;13.80;99.90;;;;;;5032919;28;19948;-94
2023/10/08 07:58:37;;;;;;;;;;;13.80;99.90;;;;;;5028411;28;19925;-93
2023/10/08 08:01:05;;;;;;;;;;;13.80;99.90;;;;;;5012819;28;19933;-92
2023/10/08 08:03:31;;;;;;;;;;;13.90;99.90;;;;;;5036449;28;19960;-92
2023/10/08 08:05:58;;;;;;;;;;;13.90;99.90;;;;;;5041568;28;19929;-91
2023/10/08 08:08:27;;;;;;;;;;;13.90;99.90;;;;;;5025617;28;19984;-92
2023/10/08 08:10:57;;;;;;;;;;;14.00;99.90;;;;;;5015829;28;20004;-92
2023/10/08 08:13:27;;;;;;;;;;;14.00;99.90;;;;;;5031232;28;19929;-91
2023/10/08 08:15:58;;;;;;;;;;;14.10;99.90;;;;;;5023392;28;19929;-92
2023/10/08 08:18:30;;;;;;;;;;;14.10;99.90;;;;;;5031975;28;19956;-90
2023/10/08 08:21:01;;;;;;;;;;;14.20;99.90;;;;;;5017949;28;19934;-91
2023/10/08 08:23:31;;;;;;;;;;;14.20;99.90;;;;;;5021191;28;20353;-91
2023/10/08 08:26:11;;;;;;;;;;;14.40;99.90;;;;;;5024024;28;19995;-91
2023/10/08 08:28:36;;;;;;;;;;;14.50;99.90;;;;;;5024872;28;19929;-86
2023/10/08 08:31:04;;;;;;;;;;;14.50;99.90;;;;;;5018139;28;19951;-91
2023/10/08 08:36:17;;;;;;;;;;;14.70;99.90;;;;;;5019177;28;19929;-90
2023/10/08 08:38:43;;;;;;;;;;;14.80;99.90;;;;;;5023692;28;19997;-90
2023/10/08 08:41:12;;;;;;;;;;;14.90;99.90;;;;;;5026869;28;21431;-89
2023/10/08 08:43:43;;;;;;;;;;;14.90;99.90;;;;;;5016801;28;19951;-90
2023/10/08 08:46:12;;;;;;;;;;;14.90;99.90;;;;;;5021225;28;19932;-90
2023/10/08 08:48:42;;;;;;;;;;;15.00;99.90;;;;;;5031636;28;19925;-90
2023/10/08 08:51:09;;;;;;;;;;;14.90;99.90;;;;;;5021293;28;19984;-91
2023/10/08 08:53:37;;;;;;;;;;;14.90;99.90;;;;;;5017480;28;19947;-89
2023/10/08 08:56:06;;;;;;;;;;;15.00;99.90;;;;;;5017417;28;19933;-87
2023/10/08 08:58:35;;;;;;;;;;;15.00;99.90;;;;;;5031404;28;19996;-90
2023/10/08 09:01:03;;;;;;;;;;;15.00;99.90;;;;;;5028960;28;20416;-90
2023/10/08 09:03:31;;;;;;;;;;;15.10;99.90;;;;;;5023336;28;19940;-89
2023/10/08 09:05:58;;;;;;;;;;;15.10;99.90;;;;;;5029027;28;19932;-89
2023/10/08 09:08:27;;;;;;;;;;;15.20;99.90;;;;;;5020927;28;19983;-89
2023/10/08 09:11:00;;;;;;;;;;;15.20;99.90;;;;;;5026314;28;19925;-89
2023/10/08 09:13:27;;;;;;;;;;;15.20;99.90;;;;;;5019313;28;19934;-89
2023/10/08 09:15:57;;;;;;;;;;;15.30;99.90;;;;;;5019676;28;19949;-89
2023/10/08 09:18:23;;;;;;;;;;;15.30;99.90;;;;;;5018716;28;19980;-89
2023/10/08 09:20:49;;;;;;;;;;;15.40;99.90;;;;;;5023130;28;19996;-89
2023/10/08 09:23:17;;;;;;;;;;;15.40;99.90;;;;;;5020408;28;20392;-88
2023/10/08 09:25:44;;;;;;;;;;;15.50;99.90;;;;;;5021340;28;19926;-87
2023/10/08 09:28:12;;;;;;;;;;;15.50;99.90;;;;;;5024347;28;19930;-87
2023/10/08 09:30:39;;;;;;;;;;;15.40;99.90;;;;;;5002888;28;19929;-88
2023/10/08 09:33:10;;;;;;;;;;;15.40;99.90;;;;;;5024058;28;19956;-89
2023/10/08 09:35:36;;;;;;;;;;;15.50;99.90;;;;;;5013739;28;19933;-88
2023/10/08 09:38:15;;;;;;;;;;;15.50;99.90;;;;;;5016995;28;19976;-88
2023/10/08 09:40:44;;;;;;;;;;;15.50;99.90;;;;;;5021903;28;19941;-88
2023/10/08 09:43:10;;;;;;;;;;;15.50;99.90;;;;;;5014255;28;19925;-89
2023/10/08 09:45:37;;;;;;;;;;;15.50;99.90;;;;;;5024006;28;20439;-89
2023/10/08 09:48:05;;;;;;;;;;;15.40;99.90;;;;;;5029778;28;19929;-88
2023/10/08 09:50:37;;;;;;;;;;;15.50;99.90;;;;;;5029965;28;20307;-89
2023/10/08 09:53:19;;;;;;;;;;;15.70;99.90;;;;;;5020677;28;19929;-87
2023/10/08 09:55:48;;;;;;;;;;;16.00;99.90;;;;;;5025937;28;20518;-87
2023/10/08 09:58:16;;;;;;;;;;;16.30;99.90;;;;;;5025061;28;19929;-88
2023/10/08 10:00:44;;;;;;;;;;;16.50;99.90;;;;;;5022953;28;19940;-87
2023/10/08 10:03:12;;;;;;;;;;;16.70;99.90;;;;;;5030396;28;20398;-85
2023/10/08 10:05:37;;;;;;;;;;;16.70;99.90;;;;;;5042075;28;19971;-86
2023/10/08 10:08:09;;;;;;;;;;;16.90;99.90;;;;;;5025871;28;20020;-85
2023/10/08 10:10:38;;;;;;;;;;;16.90;99.90;;;;;;5023806;28;20719;-88
2023/10/08 10:13:04;;;;;;;;;;;16.80;99.90;;;;;;5025183;28;20351;-87
2023/10/08 10:15:34;;;;;;;;;;;16.80;99.90;;;;;;5029748;28;19925;-87
2023/10/08 10:18:13;;;;;;;;;;;16.90;99.90;;;;;;5027991;28;19936;-86
2023/10/08 10:20:45;;;;;;;;;;;16.90;99.90;;;;;;5018977;28;19932;-87
2023/10/08 10:23:29;;;;;;;;;;;16.90;99.90;;;;;;5026539;28;20272;-85
2023/10/08 10:25:56;;;;;;;;;;;17.00;99.90;;;;;;5024146;28;20005;-86
2023/10/08 10:28:22;;;;;;;;;;;17.00;99.90;;;;;;5027308;28;19929;-87
2023/10/08 10:30:48;;;;;;;;;;;17.10;99.90;;;;;;5021279;28;19972;-86
2023/10/08 10:33:14;;;;;;;;;;;17.30;99.90;;;;;;5017996;28;20316;-85
2023/10/08 10:35:41;;;;;;;;;;;17.50;99.90;;;;;;5021134;28;19996;-86
2023/10/08 10:38:07;;;;;;;;;;;17.60;99.90;;;;;;5020256;28;19929;-86
2023/10/08 10:40:39;;;;;;;;;;;17.70;99.90;;;;;;5028404;28;19955;-86
2023/10/08 10:43:09;;;;;;;;;;;17.80;99.90;;;;;;5021241;28;19929;-85
2023/10/08 10:45:35;;;;;;;;;;;17.90;99.90;;;;;;5022283;28;19951;-85
2023/10/08 10:48:12;;;;;;;;;;;18.00;99.90;;;;;;5021364;28;20085;-84
2023/10/08 10:53:26;;;;;;;;;;;17.80;99.90;;;;;;5019488;28;19936;-85
2023/10/08 10:55:59;;;;;;;;;;;17.70;99.90;;;;;;5020297;28;19930;-83
2023/10/08 10:58:26;;;;;;;;;;;17.50;99.90;;;;;;5023480;28;19980;-84
2023/10/08 11:00:58;;;;;;;;;;;17.30;99.90;;;;;;5025755;28;19941;-85
2023/10/08 11:03:24;;;;;;;;;;;17.20;99.90;;;;;;5032771;28;19980;-87
2023/10/08 11:05:59;;;;;;;;;;;17.20;99.90;;;;;;5016034;28;19933;-84
2023/10/08 11:08:25;;;;;;;;;;;17.20;99.90;;;;;;5016929;28;19956;-86
2023/10/08 11:10:51;;;;;;;;;;;17.20;99.90;;;;;;5027344;28;19933;-84
2023/10/08 11:13:19;;;;;;;;;;;17.20;99.90;;;;;;5021973;28;19925;-87
2023/10/08 11:15:49;;;;;;;;;;;17.20;99.90;;;;;;5027170;28;20352;-83
2023/10/08 11:18:16;;;;;;;;;;;17.10;99.90;;;;;;5009601;28;19944;-84
2023/10/08 11:20:44;;;;;;;;;;;17.00;99.90;;;;;;5037688;28;19930;-85
2023/10/08 11:23:28;;;;;;;;;;;17.00;99.90;;;;;;5022831;28;19933;-83
2023/10/08 11:26:04;;;;;;;;;;;16.90;99.90;;;;;;5025605;28;19925;-83
2023/10/08 11:28:41;;;;;;;;;;;17.00;99.90;;;;;;5039470;28;19929;-85
2023/10/08 11:31:08;;;;;;;;;;;17.20;99.90;;;;;;5033321;28;19925;-85
2023/10/08 11:33:35;;;;;;;;;;;17.50;99.90;;;;;;5023604;28;19925;-84
2023/10/08 11:36:02;;;;;;;;;;;17.80;99.90;;;;;;5027720;28;19930;-85
2023/10/08 11:38:37;;;;;;;;;;;18.10;99.90;;;;;;5028876;28;19934;-83
2023/10/08 11:41:13;;;;;;;;;;;18.30;99.90;;;;;;5036906;28;19980;-85
2023/10/08 11:43:39;;;;;;;;;;;18.40;99.90;;;;;;5007481;28;19932;-84
2023/10/08 11:46:05;;;;;;;;;;;18.40;99.90;;;;;;5018601;28;19995;-85
2023/10/08 11:48:38;;;;;;;;;;;18.40;99.90;;;;;;5020655;28;19934;-86
2023/10/08 11:51:05;;;;;;;;;;;18.30;99.90;;;;;;5018072;28;19993;-85
2023/10/08 11:53:31;;;;;;;;;;;18.20;99.90;;;;;;5020784;28;19929;-87
2023/10/08 11:55:57;;;;;;;;;;;18.20;99.90;;;;;;5018025;28;20578;-87
2023/10/08 11:58:37;;;;;;;;;;;18.20;99.90;;;;;;5025894;28;19936;-87
2023/10/08 12:01:03;;;;;;;;;;;18.20;99.90;;;;;;5020954;28;19936;-87
2023/10/08 12:03:29;;;;;;;;;;;18.10;99.90;;;;;;5003249;28;19999;-87
2023/10/08 12:05:59;;;;;;;;;;;18.00;99.90;;;;;;5023733;28;19973;-87
2023/10/08 12:08:27;;;;;;;;;;;17.90;99.90;;;;;;5024693;28;19929;-87
2023/10/08 12:10:55;;;;;;;;;;;18.00;99.90;;;;;;5021652;28;19994;-87
2023/10/08 12:13:24;;;;;;;;;;;18.00;99.90;;;;;;5030415;28;19929;-86
2023/10/08 12:16:05;;;;;;;;;;;18.00;99.90;;;;;;5024731;28;19925;-89
2023/10/08 12:18:34;;;;;;;;;;;18.10;99.90;;;;;;5030670;28;19973;-89
2023/10/08 12:21:01;;;;;;;;;;;18.20;99.90;;;;;;5018443;28;20328;-88
2023/10/08 12:23:28;;;;;;;;;;;18.30;99.90;;;;;;5023119;28;19984;-87
2023/10/08 12:25:57;;;;;;;;;;;18.30;99.90;;;;;;5034824;28;19961;-87
2023/10/08 12:28:23;;;;;;;;;;;18.20;99.90;;;;;;5032814;28;19925;-88
2023/10/08 12:30:52;;;;;;;;;;;18.10;99.90;;;;;;5018411;28;19949;-88
2023/10/08 12:33:19;;;;;;;;;;;18.00;99.90;;;;;;5037331;28;19925;-86
2023/10/08 12:35:45;;;;;;;;;;;18.10;99.90;;;;;;5032190;28;19936;-88
2023/10/08 12:38:12;;;;;;;;;;;18.20;99.90;;;;;;5038463;28;19988;-88
2023/10/08 12:40:47;;;;;;;;;;;18.30;99.90;;;;;;5022100;28;19925;-88
2023/10/08 12:43:13;;;;;;;;;;;18.50;99.90;;;;;;5027710;28;20020;-88
2023/10/08 12:45:39;;;;;;;;;;;18.60;99.90;;;;;;5034179;28;19928;-86
2023/10/08 12:48:05;;;;;;;;;;;18.80;99.90;;;;;;5036920;28;20559;-88
2023/10/08 12:50:42;;;;;;;;;;;18.80;99.90;;;;;;5034017;28;20429;-88
2023/10/08 12:53:11;;;;;;;;;;;18.80;99.90;;;;;;5034436;28;20301;-89
2023/10/08 12:55:40;;;;;;;;;;;18.60;99.90;;;;;;5027860;28;19932;-89
2023/10/08 12:58:09;;;;;;;;;;;18.50;99.90;;;;;;5033979;28;19925;-88
2023/10/08 13:00:37;;;;;;;;;;;18.50;99.90;;;;;;5035504;28;19948;-88
2023/10/08 13:03:05;;;;;;;;;;;18.50;99.90;;;;;;5037873;28;20004;-87
2023/10/08 13:05:33;;;;;;;;;;;18.50;99.90;;;;;;5037946;28;19929;-88
2023/10/08 13:08:09;;;;;;;;;;;18.40;99.90;;;;;;5037515;28;19925;-89
2023/10/08 13:10:35;;;;;;;;;;;18.30;99.90;;;;;;5034519;28;19930;-89
2023/10/08 13:13:01;;;;;;;;;;;18.20;99.90;;;;;;5020346;28;19995;-87
2023/10/08 13:15:26;;;;;;;;;;;18.10;99.90;;;;;;5026176;28;19924;-92
2023/10/08 13:17:52;;;;;;;;;;;18.00;99.90;;;;;;5024813;28;19936;-91
2023/10/08 13:20:18;;;;;;;;;;;18.00;99.90;;;;;;5026679;28;19925;-91
2023/10/08 13:22:43;;;;;;;;;;;17.90;99.90;;;;;;5031006;28;19926;-90
2023/10/08 13:25:11;;;;;;;;;;;17.80;99.90;;;;;;5032518;28;19925;-91
2023/10/08 13:27:39;;;;;;;;;;;17.80;99.90;;;;;;5040016;28;19925;-90
2023/10/08 13:30:08;;;;;;;;;;;17.70;99.90;;;;;;5028358;28;20461;-90
2023/10/08 13:32:36;;;;;;;;;;;17.50;99.90;;;;;;5027935;28;19944;-90
2023/10/08 13:35:04;;;;;;;;;;;17.40;99.90;;;;;;5039557;28;19936;-91
2023/10/08 13:37:29;;;;;;;;;;;17.30;99.90;;;;;;5040001;28;19972;-91
2023/10/08 13:39:55;;;;;;;;;;;17.30;99.90;;;;;;5037862;28;20372;-90
2023/10/08 13:42:20;;;;;;;;;;;17.30;99.90;;;;;;5026377;28;20067;-91
2023/10/08 13:44:46;;;;;;;;;;;17.40;99.90;;;;;;5039212;28;19925;-89
2023/10/08 13:47:15;;;;;;;;;;;17.40;99.90;;;;;;5034170;28;19971;-90
2023/10/08 13:49:42;;;;;;;;;;;17.50;99.90;;;;;;5037499;28;20354;-91
2023/10/08 13:52:08;;;;;;;;;;;17.50;99.90;;;;;;5035276;28;19932;-90
2023/10/08 13:54:39;;;;;;;;;;;17.50;99.90;;;;;;5037269;28;19925;-90
2023/10/08 13:57:08;;;;;;;;;;;17.50;99.90;;;;;;5038637;28;19968;-91
2023/10/08 13:59:34;;;;;;;;;;;17.60;99.90;;;;;;5039082;28;19956;-90
2023/10/08 14:02:01;;;;;;;;;;;17.50;99.90;;;;;;5034152;28;19948;-91
2023/10/08 14:04:30;;;;;;;;;;;17.50;99.90;;;;;;5025655;28;19926;-89
2023/10/08 14:06:58;;;;;;;;;;;17.50;99.90;;;;;;5032641;28;19933;-89
2023/10/08 14:09:36;;;;;;;;;;;17.40;99.90;;;;;;5025862;28;19960;-91
2023/10/08 14:12:02;;;;;;;;;;;17.20;99.90;;;;;;5022859;28;19929;-90
2023/10/08 14:14:33;;;;;;;;;;;17.20;99.90;;;;;;5028454;28;19932;-90
2023/10/08 14:17:05;;;;;;;;;;;17.10;99.90;;;;;;5030095;28;19925;-91
2023/10/08 14:19:46;;;;;;;;;;;17.10;99.90;;;;;;5019759;28;20329;-91
2023/10/08 14:22:14;;;;;;;;;;;17.10;99.90;;;;;;5028962;28;19941;-90
2023/10/08 14:24:39;;;;;;;;;;;17.10;99.90;;;;;;5031479;28;19926;-90
2023/10/08 14:27:11;;;;;;;;;;;17.10;99.90;;;;;;5031078;28;19937;-91
2023/10/08 14:29:40;;;;;;;;;;;17.00;99.90;;;;;;5033894;28;19951;-90
2023/10/08 14:32:08;;;;;;;;;;;17.10;99.90;;;;;;5035327;28;19936;-90
2023/10/08 14:42:55;;;;;;;;;;;17.10;99.90;;;;;;5030944;28;20017;-90
2023/10/08 14:45:22;;;;;;;;;;;17.10;99.90;;;;;;5033713;28;19933;-90
2023/10/08 14:47:48;;;;;;;;;;;17.00;99.90;;;;;;5039705;28;19991;-91
2023/10/08 14:50:16;;;;;;;;;;;16.90;99.90;;;;;;5038069;28;20369;-90
2023/10/08 14:52:43;;;;;;;;;;;16.90;99.90;;;;;;5039627;28;19929;-92
2023/10/08 14:55:08;;;;;;;;;;;16.80;99.90;;;;;;5039746;28;19956;-91
2023/10/08 14:57:34;;;;;;;;;;;16.90;99.90;;;;;;5035571;28;19925;-91
2023/10/08 15:00:00;;;;;;;;;;;16.80;99.90;;;;;;5027894;28;19936;-91
2023/10/08 15:02:29;;;;;;;;;;;16.80;99.90;;;;;;5042474;28;19939;-91
2023/10/08 15:04:55;;;;;;;;;;;16.70;99.90;;;;;;5026858;28;20024;-90
2023/10/08 15:07:21;;;;;;;;;;;16.70;99.90;;;;;;5028627;28;19929;-88
2023/10/08 15:09:49;;;;;;;;;;;16.70;99.90;;;;;;5022324;28;19930;-91
2023/10/08 15:12:16;;;;;;;;;;;16.70;99.90;;;;;;5027062;28;19968;-91
2023/10/08 15:14:42;;;;;;;;;;;16.70;99.90;;;;;;5030711;28;20047;-88
2023/10/08 15:17:09;;;;;;;;;;;16.60;99.90;;;;;;5024951;28;19925;-90
2023/10/08 15:19:35;;;;;;;;;;;16.60;99.90;;;;;;5032729;28;19987;-91
2023/10/08 15:22:00;;;;;;;;;;;16.60;99.90;;;;;;5024386;28;19928;-90
2023/10/08 15:24:26;;;;;;;;;;;16.50;99.90;;;;;;5034725;28;19925;-90
2023/10/08 15:26:52;;;;;;;;;;;16.50;99.90;;;;;;5028886;28;19925;-90
2023/10/08 15:29:20;;;;;;;;;;;16.40;99.90;;;;;;5027755;28;19925;-90
2023/10/08 15:31:45;;;;;;;;;;;16.40;99.90;;;;;;5025096;28;19943;-89